Time;durP1;ratioP1;P1;durP2;ratioP2;P2;SDS_P1;SDS_P2;PMS_P1;PMS_P2;Temp;Humidity;BMP_temperature;BMP_pressure;BME280_temperature;BME280_humidity;BME280_pressure;Samples;Min_cycle;Max_cycle;Signal;HPM_P1;HPM_P2
2020/12/17 00:01:36;;;;;;;18.87;12.65;;;;;;;3.11;73.62;100335.13;1734712;82;23513;-42
2020/12/17 00:04:04;;;;;;;18.17;12.18;;;;;;;3.17;73.50;100333.20;1734807;82;21121;-41
2020/12/17 00:06:36;;;;;;;20.97;12.10;;;;;;;3.23;73.44;100341.44;1734224;82;21158;-42
2020/12/17 00:09:04;;;;;;;18.95;11.83;;;;;;;3.19;73.47;100339.08;1734879;82;21153;-42
2020/12/17 00:11:33;;;;;;;15.90;9.90;;;;;;;3.19;73.54;100343.09;1734800;82;21165;-42
2020/12/17 00:14:02;;;;;;;20.20;11.85;;;;;;;3.16;73.51;100340.97;1734780;82;21291;-42
2020/12/17 00:16:31;;;;;;;17.07;10.95;;;;;;;3.10;73.56;100346.16;1734609;82;21169;-42
2020/12/17 00:18:59;;;;;;;16.42;10.50;;;;;;;3.10;73.62;100344.81;1734647;82;21117;-42
2020/12/17 00:21:28;;;;;;;14.60;10.00;;;;;;;3.17;73.59;100347.39;1734684;82;21181;-42
2020/12/17 00:23:56;;;;;;;18.05;10.90;;;;;;;3.24;73.52;100346.52;1734828;82;21173;-42
2020/12/17 00:26:25;;;;;;;15.68;10.43;;;;;;;3.24;73.50;100351.08;1734801;82;21391;-42
2020/12/17 00:28:54;;;;;;;16.50;10.43;;;;;;;3.22;73.49;100350.02;1734718;82;21189;-42
2020/12/17 00:31:22;;;;;;;14.58;10.20;;;;;;;3.22;73.49;100350.55;1743437;81;21145;-42
2020/12/17 00:33:50;;;;;;;15.72;9.65;;;;;;;3.20;73.52;100353.50;1765137;81;21141;-42
2020/12/17 00:36:21;;;;;;;14.45;9.35;;;;;;;3.23;73.36;100348.13;1765284;81;21177;-42
2020/12/17 00:38:49;;;;;;;13.95;8.83;;;;;;;3.28;73.29;100348.08;1745941;81;22055;-42
2020/12/17 00:41:18;;;;;;;16.15;9.88;;;;;;;2.95;73.28;100293.55;1734616;82;21189;-42
2020/12/17 00:43:46;;;;;;;16.15;9.70;;;;;;;3.25;73.34;100350.77;1738895;81;21034;-41
2020/12/17 00:46:15;;;;;;;13.22;8.90;;;;;;;3.20;73.47;100355.38;1764641;81;21138;-42
2020/12/17 00:48:44;;;;;;;13.28;8.23;;;;;;;3.18;73.55;100342.83;1764812;81;21154;-42
2020/12/17 00:51:12;;;;;;;15.03;8.98;;;;;;;3.14;73.52;100343.16;1764489;81;23594;-41
2020/12/17 00:53:40;;;;;;;12.30;8.55;;;;;;;3.06;73.66;100341.89;1710892;81;21055;-42
2020/12/17 00:56:09;;;;;;;12.93;8.83;;;;;;;3.13;73.64;100341.55;1764624;81;21112;-42
2020/12/17 00:58:37;;;;;;;14.10;9.00;;;;;;;3.13;73.62;100338.34;1758219;79;21159;-42
2020/12/17 01:01:07;;;;;;;11.25;7.28;;;;;;;3.12;73.74;100338.61;1789440;79;21023;-42
2020/12/17 01:03:35;;;;;;;15.85;8.28;;;;;;;3.11;73.87;100334.33;1789463;79;21192;-42
2020/12/17 01:06:08;;;;;;;14.53;8.88;;;;;;;3.09;73.92;100331.95;1789245;80;21143;-42
2020/12/17 01:08:36;;;;;;;12.15;8.30;;;;;;;3.04;73.97;100328.80;1788440;79;21553;-41
2020/12/17 01:11:05;;;;;;;11.10;7.80;;;;;;;3.09;73.95;100321.78;1784075;80;21019;-42
2020/12/17 01:13:34;;;;;;;11.70;8.27;;;;;;;3.16;73.80;100328.91;1784243;80;21138;-42
2020/12/17 01:16:02;;;;;;;13.20;8.00;;;;;;;3.17;73.77;100330.52;1784623;79;21347;-42
2020/12/17 01:18:31;;;;;;;11.18;7.45;;;;;;;3.14;73.85;100332.44;1783953;80;21150;-42
2020/12/17 01:20:59;;;;;;;12.03;8.00;;;;;;;3.08;73.89;100325.54;1798682;79;21130;-42
2020/12/17 01:23:27;;;;;;;12.33;7.55;;;;;;;3.00;74.06;100317.03;1787072;79;21165;-42
2020/12/17 01:25:56;;;;;;;12.85;7.87;;;;;;;2.95;74.24;100323.79;1816256;79;21174;-42
2020/12/17 01:28:24;;;;;;;10.78;7.40;;;;;;;2.96;74.27;100318.69;1816193;79;21149;-42
2020/12/17 01:30:52;;;;;;;10.55;7.22;;;;;;;3.00;74.19;100314.36;1815868;78;21110;-41
2020/12/17 01:33:21;;;;;;;11.48;7.53;;;;;;;2.99;74.21;100311.45;1816159;78;21162;-42
2020/12/17 01:35:49;;;;;;;10.98;7.33;;;;;;;2.99;74.36;100316.80;1816149;79;21146;-41
2020/12/17 01:38:18;;;;;;;10.35;7.10;;;;;;;2.98;74.45;100316.54;1816201;79;21154;-42
2020/12/17 01:40:47;;;;;;;14.13;8.15;;;;;;;2.96;74.42;100316.02;1816220;79;21421;-42
2020/12/17 01:43:15;;;;;;;11.08;7.33;;;;;;;2.92;74.57;100322.23;1816131;79;21723;-42
2020/12/17 01:45:43;;;;;;;11.93;7.72;;;;;;;2.90;74.65;100325.21;1785199;79;21028;-42
2020/12/17 01:48:12;;;;;;;9.55;7.12;;;;;;;2.98;74.53;100329.94;1802071;79;21150;-42
2020/12/17 01:50:40;;;;;;;10.98;7.72;;;;;;;3.02;74.49;100325.59;1816114;79;21483;-42
2020/12/17 01:53:09;;;;;;;10.70;7.80;;;;;;;3.01;74.44;100326.67;1816151;79;21361;-42
2020/12/17 01:55:38;;;;;;;13.30;8.55;;;;;;;2.99;74.46;100332.88;1816096;79;21024;-42
2020/12/17 01:58:07;;;;;;;11.05;7.28;;;;;;;2.97;74.58;100335.56;1780342;80;21163;-42
2020/12/17 02:00:36;;;;;;;11.57;7.20;;;;;;;3.05;74.54;100333.59;1786716;80;21110;-42
2020/12/17 02:03:07;;;;;;;10.45;7.25;;;;;;;3.17;74.32;100337.22;1787039;80;21169;-42
2020/12/17 02:05:36;;;;;;;11.55;7.55;;;;;;;3.22;74.18;100331.80;1786710;80;21348;-42
2020/12/17 02:08:06;;;;;;;11.65;7.72;;;;;;;3.23;74.17;100331.52;1786663;80;21181;-42
2020/12/17 02:10:34;;;;;;;11.53;7.17;;;;;;;3.21;74.08;100330.99;1784000;80;21629;-42
2020/12/17 02:13:03;;;;;;;14.35;7.20;;;;;;;3.19;74.10;100324.34;1714947;80;21138;-42
2020/12/17 02:15:31;;;;;;;11.73;7.70;;;;;;;3.18;74.07;100322.73;1783996;80;21158;-42
2020/12/17 02:18:00;;;;;;;10.40;7.20;;;;;;;3.19;73.98;100327.02;1783868;80;21267;-42
2020/12/17 02:20:28;;;;;;;11.20;7.35;;;;;;;3.19;73.94;100327.02;1783931;80;21106;-42
2020/12/17 02:22:56;;;;;;;13.58;8.05;;;;;;;3.15;74.17;100331.36;1784018;80;21003;-41
2020/12/17 02:25:24;;;;;;;11.63;7.55;;;;;;;3.13;74.34;100338.34;1783948;80;20979;-42
2020/12/17 02:27:56;;;;;;;12.35;7.80;;;;;;;3.12;74.34;100342.63;1783969;80;21121;-42
2020/12/17 02:30:27;;;;;;;10.93;7.33;;;;;;;3.09;74.39;100342.67;1783936;80;21376;-42
2020/12/17 02:32:56;;;;;;;12.33;7.80;;;;;;;3.12;74.38;100338.61;1783903;80;21150;-42
2020/12/17 02:35:24;;;;;;;9.90;7.08;;;;;;;3.20;74.22;100343.33;1783901;80;21126;-42
2020/12/17 02:37:54;;;;;;;;;;;;;;;3.21;74.25;100346.27;1786582;79;21050;-42
2020/12/17 02:40:22;;;;;;;11.15;7.58;;;;;;;3.24;74.27;100348.40;1784041;80;20555;-41
2020/12/17 02:42:51;;;;;;;11.57;7.47;;;;;;;3.15;74.42;100346.87;1783991;80;21347;-42
2020/12/17 02:45:19;;;;;;;10.60;7.83;;;;;;;3.15;74.28;100344.76;1809494;79;21159;-42
2020/12/17 02:47:47;;;;;;;11.35;7.33;;;;;;;3.17;74.25;100343.91;1816041;79;21032;-42
2020/12/17 02:50:16;;;;;;;11.50;7.03;;;;;;;3.21;74.19;100347.61;1816157;79;21178;-42
2020/12/17 02:52:44;;;;;;;11.28;7.30;;;;;;;3.21;74.17;100340.91;1816118;79;21546;-42
2020/12/17 02:55:12;;;;;;;13.00;8.08;;;;;;;3.16;74.29;100342.31;1816188;79;21507;-42
2020/12/17 02:57:40;;;;;;;14.47;8.23;;;;;;;3.09;74.40;100343.21;1813078;78;21098;-42
2020/12/17 03:00:10;;;;;;;12.93;8.08;;;;;;;3.05;74.53;100342.96;1789275;80;21142;-42
2020/12/17 03:02:39;;;;;;;11.88;7.55;;;;;;;3.04;74.57;100342.73;1789368;80;21114;-42
2020/12/17 03:05:07;;;;;;;11.53;7.58;;;;;;;3.08;74.53;100346.43;1789216;80;21182;-42
2020/12/17 03:07:36;;;;;;;10.77;7.17;;;;;;;3.10;74.59;100348.83;1789347;80;21179;-42
2020/12/17 03:10:06;;;;;;;12.55;7.70;;;;;;;3.00;74.63;100338.47;1790245;79;21168;-42
2020/12/17 03:12:34;;;;;;;9.60;6.40;;;;;;;3.04;74.69;100353.45;1784073;80;20980;-41
2020/12/17 03:15:04;;;;;;;16.30;9.00;;;;;;;2.99;74.81;100355.64;1783964;80;21126;-42
2020/12/17 03:17:33;;;;;;;15.10;8.50;;;;;;;3.00;74.82;100358.55;1783936;80;21078;-42
2020/12/17 03:20:03;;;;;;;12.95;7.97;;;;;;;3.04;74.76;100356.13;1783908;80;21263;-42
2020/12/17 03:22:31;;;;;;;13.93;8.38;;;;;;;3.06;74.74;100362.78;1783943;80;21147;-42
2020/12/17 03:25:00;;;;;;;13.90;8.90;;;;;;;3.05;74.95;100365.20;1784017;80;21166;-42
2020/12/17 03:27:29;;;;;;;15.10;9.15;;;;;;;3.04;75.01;100369.52;1783913;80;21115;-42
2020/12/17 03:29:57;;;;;;;12.20;8.33;;;;;;;3.02;75.04;100375.16;1784039;80;21381;-42
2020/12/17 03:32:25;;;;;;;13.30;8.43;;;;;;;3.05;74.99;100380.47;1781516;80;21363;-41
2020/12/17 03:34:54;;;;;;;13.53;9.10;;;;;;;3.10;74.93;100374.28;1779393;80;21047;-42
2020/12/17 03:37:23;;;;;;;16.35;10.18;;;;;;;3.17;74.83;100378.74;1792748;78;21149;-42
2020/12/17 03:39:51;;;;;;;14.63;9.35;;;;;;;3.15;74.81;100377.68;1806381;79;21106;-41
2020/12/17 03:42:20;;;;;;;16.12;9.78;;;;;;;3.12;74.78;100376.12;1806405;79;21205;-42
2020/12/17 03:44:48;;;;;;;14.28;9.15;;;;;;;3.07;74.83;100376.98;1790789;79;22293;-42
2020/12/17 03:47:17;;;;;;;13.73;8.97;;;;;;;3.12;74.70;100376.12;1779736;79;21622;-42
2020/12/17 03:49:45;;;;;;;15.50;9.98;;;;;;;3.23;74.68;100373.05;1779395;80;21159;-42
2020/12/17 03:52:15;;;;;;;14.45;9.73;;;;;;;3.33;74.60;100372.94;1779604;80;21594;-41
2020/12/17 03:54:43;;;;;;;18.80;9.28;;;;;;;3.41;74.35;100377.65;1779406;80;21646;-42
2020/12/17 03:57:11;;;;;;;17.73;10.80;;;;;;;3.41;74.01;100378.19;1779437;80;23516;-42
2020/12/17 03:59:40;;;;;;;15.35;10.35;;;;;;;3.36;73.96;100384.95;1804718;78;21158;-42
2020/12/17 04:02:08;;;;;;;14.47;9.70;;;;;;;3.32;74.07;100376.69;1811523;79;21126;-42
2020/12/17 04:04:37;;;;;;;14.87;9.28;;;;;;;3.36;73.99;100376.37;1811291;79;20995;-42
2020/12/17 04:07:05;;;;;;;14.07;9.35;;;;;;;3.43;73.88;100381.39;1811528;79;21111;-41
2020/12/17 04:09:33;;;;;;;14.13;9.78;;;;;;;3.47;73.76;100378.39;1811400;79;23435;-42
2020/12/17 04:12:02;;;;;;;15.60;9.70;;;;;;;3.46;73.75;100384.83;1811342;79;21138;-42
2020/12/17 04:14:30;;;;;;;16.27;10.32;;;;;;;3.47;73.85;100385.09;1811392;79;21134;-41
2020/12/17 04:16:58;;;;;;;14.98;9.10;;;;;;;3.50;73.78;100388.53;1811443;79;21102;-42
2020/12/17 04:19:26;;;;;;;15.45;9.53;;;;;;;3.51;73.64;100391.47;1811624;79;21696;-42
2020/12/17 04:21:55;;;;;;;16.27;10.25;;;;;;;3.57;73.48;100384.16;1811723;79;21416;-42
2020/12/17 04:24:23;;;;;;;13.08;9.75;;;;;;;3.63;73.26;100383.79;1811467;78;21383;-42
2020/12/17 04:26:52;;;;;;;17.15;10.00;;;;;;;3.65;73.25;100387.00;1811673;79;21146;-42
2020/12/17 04:29:20;;;;;;;15.63;10.28;;;;;;;3.67;73.26;100387.52;1792375;80;20993;-42
2020/12/17 04:31:48;;;;;;;16.25;11.12;;;;;;;3.71;73.11;100386.39;1759881;81;21101;-42
2020/12/17 04:34:17;;;;;;;15.47;9.57;;;;;;;3.67;73.02;100384.84;1773304;80;21618;-42
2020/12/17 04:36:48;;;;;;;16.20;10.40;;;;;;;3.62;73.01;100388.12;1768264;80;21158;-42
2020/12/17 04:39:18;;;;;;;;;;;;;;;3.62;72.99;100383.56;1744764;82;21019;-42
2020/12/17 04:41:47;;;;;;;15.53;9.80;;;;;;;3.69;72.82;100383.98;1784549;80;20246;-42
2020/12/17 04:44:16;;;;;;;14.10;9.68;;;;;;;3.64;72.96;100384.05;1796508;79;21609;-42
2020/12/17 04:46:57;;;;;;;16.62;10.25;;;;;;;3.65;72.87;100387.00;1816695;79;22355;-42
2020/12/17 04:49:43;;;;;;;14.75;9.90;;;;;;;3.64;72.89;100377.34;1793177;77;21144;-42
2020/12/17 04:52:11;;;;;;;14.50;8.63;;;;;;;3.60;72.91;100380.36;1792131;79;21033;-41
2020/12/17 04:54:40;;;;;;;15.35;9.45;;;;;;;3.57;72.92;100378.27;1792269;80;21033;-42
2020/12/17 04:57:13;;;;;;;14.40;10.23;;;;;;;3.57;73.00;100378.80;1792453;80;21132;-42
2020/12/17 04:59:45;;;;;;;13.43;9.50;;;;;;;3.63;72.93;100379.00;1810263;77;21186;-42
2020/12/17 05:02:16;;;;;;;16.02;10.23;;;;;;;3.69;72.75;100381.84;1816726;79;21126;-42
2020/12/17 05:04:46;;;;;;;13.65;8.88;;;;;;;3.69;72.74;100377.28;1816868;79;21134;-42
2020/12/17 05:07:16;;;;;;;;;;;;;;;3.71;72.66;100382.37;1819466;79;21103;-42
2020/12/17 05:09:45;;;;;;;16.48;10.10;;;;;;;3.68;72.67;100382.95;1795636;79;20273;-42
2020/12/17 05:12:14;;;;;;;17.37;9.83;;;;;;;3.57;72.91;100387.64;1784751;80;22098;-42
2020/12/17 05:14:43;;;;;;;14.40;9.38;;;;;;;3.56;72.83;100382.56;1784375;80;21153;-42
2020/12/17 05:17:11;;;;;;;17.87;11.10;;;;;;;3.50;72.96;100383.16;1784543;80;21130;-42
2020/12/17 05:19:42;;;;;;;16.85;10.18;;;;;;;3.58;72.90;100387.11;1784498;80;21173;-42
2020/12/17 05:22:13;;;;;;;12.85;9.88;;;;;;;3.67;72.73;100386.17;1784698;80;21158;-42
2020/12/17 05:24:47;;;;;;;18.07;11.45;;;;;;;3.75;72.65;100388.75;1784504;80;21346;-42
2020/12/17 05:27:16;;;;;;;15.88;10.15;;;;;;;3.77;72.58;100392.75;1776526;79;21169;-42
2020/12/17 05:29:44;;;;;;;16.25;11.30;;;;;;;3.78;72.52;100396.20;1768184;81;21180;-42
2020/12/17 05:32:18;;;;;;;16.17;10.85;;;;;;;3.80;72.44;100401.55;1767712;80;21228;-41
2020/12/17 05:34:46;;;;;;;18.05;10.68;;;;;;;3.83;72.39;100402.30;1762582;81;21156;-42
2020/12/17 05:37:15;;;;;;;19.48;11.57;;;;;;;3.84;72.23;100403.90;1744222;79;23517;-42
2020/12/17 05:39:45;;;;;;;15.58;10.93;;;;;;;3.92;72.05;100401.90;1787846;79;21138;-42
2020/12/17 05:42:13;;;;;;;17.42;11.83;;;;;;;4.00;71.90;100407.17;1789262;79;21028;-42
2020/12/17 05:44:42;;;;;;;17.48;10.98;;;;;;;4.04;71.69;100411.41;1781188;79;21090;-42
2020/12/17 05:47:14;;;;;;;15.48;10.90;;;;;;;4.00;71.64;100413.89;1816123;78;21102;-42
2020/12/17 05:49:42;;;;;;;19.40;12.45;;;;;;;3.97;71.59;100415.78;1788428;79;21385;-42
2020/12/17 05:52:14;;;;;;;16.85;11.20;;;;;;;3.89;71.67;100416.45;1786626;80;21197;-42
2020/12/17 05:54:56;;;;;;;18.32;11.48;;;;;;;3.85;71.78;100413.55;1786702;80;21118;-42
2020/12/17 05:57:24;;;;;;;15.30;11.12;;;;;;;3.83;71.85;100423.76;1786725;80;21094;-42
2020/12/17 06:00:01;;;;;;;17.62;11.12;;;;;;;3.90;71.76;100425.55;1786698;80;21145;-42
2020/12/17 06:02:33;;;;;;;17.75;11.90;;;;;;;3.98;71.59;100428.66;1786719;80;21345;-42
2020/12/17 06:05:12;;;;;;;18.25;11.70;;;;;;;3.99;71.63;100431.06;1786817;80;21577;-42
2020/12/17 06:07:49;;;;;;;17.02;11.73;;;;;;;4.04;71.55;100434.22;1786662;80;20983;-42
2020/12/17 06:10:27;;;;;;;;;;;;;;;4.05;71.39;100435.82;1793494;79;20971;-42
2020/12/17 06:12:57;;;;;;;16.70;11.18;;;;;;;3.98;71.40;100437.52;1816074;79;20521;-43
2020/12/17 06:15:27;;;;;;;19.32;12.30;;;;;;;3.78;71.74;100440.45;1816106;79;21186;-41
2020/12/17 06:17:58;;;;;;;;;;;;;;;3.69;71.85;100440.30;1792243;79;21192;-42
2020/12/17 06:20:29;;;;;;;16.93;12.07;;;;;;;3.73;71.91;100441.86;1783647;80;20186;-42
2020/12/17 06:23:05;;;;;;;16.97;11.38;;;;;;;3.76;71.90;100444.79;1783992;80;21165;-42
2020/12/17 06:25:35;;;;;;;20.90;13.32;;;;;;;3.79;72.02;100442.86;1783978;80;21570;-42
2020/12/17 06:28:04;;;;;;;19.27;12.05;;;;;;;3.84;71.93;100441.45;1784089;80;21253;-42
2020/12/17 06:30:34;;;;;;;22.80;13.75;;;;;;;3.82;71.87;100444.98;1783245;80;21634;-42
2020/12/17 06:33:04;;;;;;;18.98;12.60;;;;;;;3.78;71.91;100441.80;1781228;80;21087;-42
2020/12/17 06:35:47;;;;;;;20.68;13.08;;;;;;;3.73;71.98;100448.02;1776785;80;21087;-42
2020/12/17 06:38:16;;;;;;;19.25;12.60;;;;;;;3.73;72.07;100455.27;1776773;79;21621;-42
2020/12/17 06:40:45;;;;;;;19.25;12.73;;;;;;;3.78;71.94;100447.16;1776616;80;21399;-42
2020/12/17 06:43:36;;;;;;;21.15;12.23;;;;;;;3.82;71.96;100448.20;1776932;80;21597;-42
2020/12/17 06:46:05;;;;;;;20.85;13.93;;;;;;;3.85;71.93;100452.98;1776853;80;20974;-42
2020/12/17 06:48:38;;;;;;;20.45;13.28;;;;;;;3.87;71.97;100455.62;1776686;80;21138;-42
2020/12/17 06:51:35;;;;;;;19.35;13.20;;;;;;;3.82;71.94;100448.20;1776804;80;21130;-42
2020/12/17 06:54:08;;;;;;;20.37;13.03;;;;;;;3.92;71.93;100468.20;1747463;82;21201;-42
2020/12/17 06:57:09;;;;;;;21.87;13.45;;;;;;;3.99;71.85;100464.60;1808837;78;22711;-42
2020/12/17 06:59:40;;;;;;;19.75;12.85;;;;;;;3.95;71.68;100468.95;1784091;78;20968;-43
2020/12/17 07:02:08;;;;;;;19.73;13.40;;;;;;;3.99;71.67;100477.22;1784341;80;22094;-43
2020/12/17 07:04:47;;;;;;;21.57;13.50;;;;;;;4.06;71.57;100468.28;1784018;80;20961;-43
2020/12/17 07:07:23;;;;;;;21.80;14.05;;;;;;;4.08;71.55;100466.09;1797128;78;21167;-43
2020/12/17 07:09:55;;;;;;;21.17;14.23;;;;;;;4.07;71.54;100471.20;1790062;79;21154;-43
2020/12/17 07:12:40;;;;;;;23.10;14.43;;;;;;;4.02;71.56;100469.95;1784087;80;20969;-43
2020/12/17 07:15:34;;;;;;;24.47;16.10;;;;;;;3.96;71.66;100475.12;1784048;80;21268;-43
2020/12/17 07:18:24;;;;;;;22.70;15.28;;;;;;;3.94;71.75;100474.05;1784095;80;21047;-43
2020/12/17 07:21:02;;;;;;;23.62;15.68;;;;;;;3.93;71.76;100484.53;1784171;78;21547;-43
2020/12/17 07:23:39;;;;;;;22.50;15.78;;;;;;;4.00;71.65;100481.50;1782448;80;21190;-43
2020/12/17 07:26:11;;;;;;;26.12;14.75;;;;;;;4.09;71.50;100487.28;1784100;79;21174;-43
2020/12/17 07:28:41;;;;;;;24.47;15.88;;;;;;;4.13;71.47;100486.15;1784100;80;21196;-43
2020/12/17 07:31:13;;;;;;;27.02;16.67;;;;;;;4.17;71.50;100485.28;1783963;80;21167;-43
2020/12/17 07:33:43;;;;;;;23.98;15.85;;;;;;;4.22;71.39;100487.09;1752749;80;21052;-43
2020/12/17 07:36:11;;;;;;;17.70;12.35;;;;;;;4.25;71.20;100491.36;1719627;83;21559;-43
2020/12/17 07:38:40;;;;;;;24.25;15.88;;;;;;;4.25;71.11;100485.99;1749200;82;21194;-43
2020/12/17 07:41:24;;;;;;;28.00;16.15;;;;;;;4.20;71.16;100484.72;1718807;83;21360;-43
2020/12/17 07:43:52;;;;;;;24.70;16.42;;;;;;;4.22;71.20;100497.83;1715797;82;21143;-43
2020/12/17 07:46:40;;;;;;;23.70;16.07;;;;;;;4.31;71.11;100488.03;1733743;82;21620;-43
2020/12/17 07:49:26;;;;;;;26.68;16.57;;;;;;;4.35;71.09;100495.79;1745573;81;21206;-43
2020/12/17 07:51:54;;;;;;;24.35;16.05;;;;;;;4.38;71.00;100504.59;1748984;82;21123;-43
2020/12/17 07:54:23;;;;;;;23.77;16.45;;;;;;;4.39;71.01;100498.14;1749059;82;21361;-43
2020/12/17 07:57:00;;;;;;;28.42;16.65;;;;;;;4.41;70.97;100503.20;1751016;81;21573;-43
2020/12/17 07:59:28;;;;;;;25.85;16.93;;;;;;;4.42;70.91;100498.89;1724593;81;21039;-43
2020/12/17 08:01:59;;;;;;;29.03;17.10;;;;;;;4.41;70.94;100499.98;1756204;81;21182;-43
2020/12/17 08:04:28;;;;;;;24.30;16.23;;;;;;;4.47;70.74;100496.13;1805030;79;21154;-43
2020/12/17 08:06:56;;;;;;;27.58;16.37;;;;;;;4.56;70.62;100494.38;1804692;79;21186;-43
2020/12/17 08:09:25;;;;;;;29.07;17.40;;;;;;;4.61;70.61;100501.56;1800475;79;21154;-43
2020/12/17 08:11:56;;;;;;;28.30;17.82;;;;;;;4.63;70.60;100501.55;1796554;79;21000;-43
2020/12/17 08:14:24;;;;;;;;;;;;;;;4.64;70.58;100504.48;1799253;79;21025;-43
2020/12/17 08:16:54;;;;;;;28.30;18.60;;;;;;;4.66;70.52;100499.61;1796756;79;20548;-43
2020/12/17 08:19:23;;;;;;;27.52;17.90;;;;;;;4.56;70.71;100506.47;1795557;79;21454;-43
2020/12/17 08:21:51;;;;;;;31.97;18.80;;;;;;;4.57;70.60;100504.05;1796486;79;21139;-43
2020/12/17 08:24:23;;;;;;;26.20;16.23;;;;;;;4.57;70.63;100498.67;1796592;79;21165;-43
2020/12/17 08:26:54;;;;;;;26.57;18.02;;;;;;;4.63;70.54;100502.08;1775558;79;21040;-43
2020/12/17 08:29:24;;;;;;;26.55;17.10;;;;;;;4.70;70.34;100501.16;1796599;79;21124;-43
2020/12/17 08:31:52;;;;;;;26.10;17.87;;;;;;;4.73;70.21;100506.77;1796609;79;21378;-43
2020/12/17 08:34:21;;;;;;;25.05;17.42;;;;;;;4.75;69.97;100511.82;1796490;79;21135;-43
2020/12/17 08:36:49;;;;;;;25.75;16.75;;;;;;;4.75;69.98;100505.91;1793321;79;21135;-43
2020/12/17 08:39:18;;;;;;;28.98;18.45;;;;;;;4.72;70.06;100507.84;1749227;81;21158;-43
2020/12/17 08:41:55;;;;;;;33.80;20.30;;;;;;;4.71;70.26;100508.93;1772723;81;21126;-43
2020/12/17 08:44:26;;;;;;;30.68;19.37;;;;;;;4.74;70.07;100512.94;1757551;80;22036;-43
2020/12/17 08:47:02;;;;;;;29.32;19.02;;;;;;;4.68;69.98;100514.89;1803609;79;21083;-43
2020/12/17 08:49:33;;;;;;;28.20;18.95;;;;;;;4.70;69.86;100512.70;1738556;81;21144;-43
2020/12/17 08:52:01;;;;;;;25.82;17.80;;;;;;;4.75;69.77;100509.94;1742067;82;21119;-43
2020/12/17 08:54:33;;;;;;;28.77;19.20;;;;;;;4.79;69.77;100516.31;1769094;81;21151;-43
2020/12/17 08:57:10;;;;;;;28.70;18.23;;;;;;;4.79;69.70;100508.26;1775930;80;21178;-43
2020/12/17 08:59:40;;;;;;;32.10;18.65;;;;;;;4.79;69.70;100504.80;1748162;80;21106;-43
2020/12/17 09:02:08;;;;;;;30.70;21.05;;;;;;;4.78;69.72;100511.25;1816230;78;21126;-43
2020/12/17 09:04:37;;;;;;;31.00;19.17;;;;;;;4.76;69.83;100514.22;1816183;79;21143;-43
2020/12/17 09:07:07;;;;;;;28.55;18.95;;;;;;;4.75;69.89;100513.97;1816110;79;21601;-43
2020/12/17 09:09:39;;;;;;;29.75;18.75;;;;;;;4.74;69.83;100509.67;1815759;78;21356;-43
2020/12/17 09:12:08;;;;;;;33.23;20.55;;;;;;;4.79;69.54;100512.28;1815666;79;21138;-43
2020/12/17 09:14:38;;;;;;;32.05;19.75;;;;;;;4.88;69.43;100521.05;1815524;79;21020;-43
2020/12/17 09:17:15;;;;;;;27.35;18.77;;;;;;;4.92;69.40;100510.76;1815687;79;28238;-43
2020/12/17 09:19:43;;;;;;;31.85;21.10;;;;;;;4.93;69.44;100515.59;1814823;79;21153;-43
2020/12/17 09:22:13;;;;;;;32.73;20.68;;;;;;;4.90;69.36;100521.53;1783536;80;21367;-43
2020/12/17 09:24:54;;;;;;;29.12;19.70;;;;;;;4.88;69.35;100524.53;1783267;80;21632;-43
2020/12/17 09:27:29;;;;;;;30.70;19.25;;;;;;;4.80;69.50;100527.86;1783179;80;21106;-43
2020/12/17 09:30:18;;;;;;;30.72;20.40;;;;;;;4.76;69.64;100527.66;1783041;80;21047;-43
2020/12/17 09:32:53;;;;;;;32.65;19.00;;;;;;;4.74;69.85;100523.68;1783559;80;21015;-43
2020/12/17 09:35:31;;;;;;;26.02;18.92;;;;;;;4.80;69.91;100521.14;1797489;79;21273;-43
2020/12/17 09:38:16;;;;;;;30.95;20.20;;;;;;;4.91;69.79;100525.28;1774813;80;21150;-43
2020/12/17 09:40:47;;;;;;;29.77;19.62;;;;;;;4.93;69.50;100531.17;1783398;80;21146;-43
2020/12/17 09:43:17;;;;;;;32.75;20.65;;;;;;;4.92;69.41;100518.02;1783381;80;21035;-43
2020/12/17 09:45:48;;;;;;;28.27;18.85;;;;;;;4.89;69.14;100520.73;1796940;79;21155;-43
2020/12/17 09:48:24;;;;;;;28.98;19.70;;;;;;;4.86;69.26;100517.30;1797143;79;21349;-43
2020/12/17 09:51:00;;;;;;;30.02;20.00;;;;;;;4.85;69.32;100519.72;1797106;79;21117;-43
2020/12/17 09:53:32;;;;;;;31.23;19.95;;;;;;;4.86;69.41;100519.18;1797105;79;21756;-43
2020/12/17 09:56:06;;;;;;;30.00;19.52;;;;;;;4.84;69.52;100514.66;1792072;79;21104;-43
2020/12/17 09:58:43;;;;;;;27.37;18.52;;;;;;;4.88;69.56;100513.78;1752070;80;21148;-43
2020/12/17 10:01:12;;;;;;;26.57;18.65;;;;;;;4.97;69.41;100512.56;1769663;80;21328;-43
2020/12/17 10:03:40;;;;;;;26.93;18.60;;;;;;;5.04;69.38;100504.36;1769595;80;21056;-43
2020/12/17 10:06:08;;;;;;;28.90;18.77;;;;;;;5.07;69.23;100503.79;1769574;80;21175;-43
2020/12/17 10:08:37;;;;;;;26.70;18.73;;;;;;;5.06;69.09;100496.02;1778017;79;21153;-43
2020/12/17 10:11:06;;;;;;;26.77;17.87;;;;;;;5.05;68.89;100499.24;1813235;79;21142;-43
2020/12/17 10:13:36;;;;;;;26.82;17.62;;;;;;;5.05;69.02;100499.24;1813005;79;21356;-43
2020/12/17 10:16:04;;;;;;;23.90;16.43;;;;;;;5.03;68.80;100501.45;1813164;79;21182;-43
2020/12/17 10:18:33;;;;;;;27.48;18.60;;;;;;;4.99;68.48;100500.95;1812899;79;20984;-43
2020/12/17 10:21:02;;;;;;;29.67;18.52;;;;;;;4.90;68.08;100509.44;1812812;79;21130;-43
2020/12/17 10:23:30;;;;;;;29.57;18.45;;;;;;;4.90;68.14;100509.44;1812946;79;21142;-43
2020/12/17 10:25:58;;;;;;;26.20;17.67;;;;;;;4.98;67.91;100506.91;1781018;80;21190;-43
2020/12/17 10:28:27;;;;;;;29.10;18.12;;;;;;;5.03;67.92;100502.79;1780827;80;21186;-43
2020/12/17 10:30:57;;;;;;;31.40;19.48;;;;;;;5.07;67.67;100502.99;1716220;83;21198;-43
2020/12/17 10:33:25;;;;;;;27.73;19.15;;;;;;;5.12;67.77;100502.91;1780909;80;21016;-43
2020/12/17 10:35:54;;;;;;;29.07;19.60;;;;;;;5.13;67.55;100501.81;1780900;80;21150;-43
2020/12/17 10:38:23;;;;;;;28.90;19.42;;;;;;;5.10;67.67;100499.70;1780827;80;21380;-43
2020/12/17 10:40:51;;;;;;;29.63;19.98;;;;;;;5.01;67.82;100500.12;1780806;80;21174;-43
2020/12/17 10:43:20;;;;;;;33.10;19.85;;;;;;;4.90;67.75;100501.37;1780841;80;21030;-43
2020/12/17 10:45:48;;;;;;;33.95;22.85;;;;;;;4.79;67.73;100501.54;1716501;83;21644;-43
2020/12/17 10:48:18;;;;;;;34.85;21.57;;;;;;;4.75;67.68;100499.19;1781072;80;21608;-43
2020/12/17 10:50:48;;;;;;;28.80;19.30;;;;;;;4.76;67.71;100506.16;1780877;80;21397;-43
2020/12/17 10:53:16;;;;;;;32.03;21.82;;;;;;;4.74;67.77;100505.65;1780902;80;21158;-43
2020/12/17 10:55:45;;;;;;;32.63;22.30;;;;;;;4.70;68.15;100511.89;1780663;80;20988;-44
2020/12/17 10:58:16;;;;;;;33.98;22.25;;;;;;;4.70;68.40;100507.33;1772599;79;21154;-43
2020/12/17 11:00:45;;;;;;;31.02;19.95;;;;;;;4.72;68.45;100509.73;1772665;81;21548;-43
2020/12/17 11:03:13;;;;;;;35.13;22.40;;;;;;;4.70;68.29;100511.36;1701654;81;21395;-43
2020/12/17 11:05:41;;;;;;;32.08;20.50;;;;;;;4.66;68.49;100513.58;1772451;81;21158;-43
2020/12/17 11:08:10;;;;;;;31.27;20.95;;;;;;;4.62;68.61;100509.34;1772908;79;21026;-43
2020/12/17 11:10:38;;;;;;;31.45;21.80;;;;;;;4.65;68.71;100517.34;1804287;79;21135;-43
2020/12/17 11:13:08;;;;;;;29.98;19.80;;;;;;;4.72;68.59;100519.93;1804555;79;21171;-43
2020/12/17 11:15:38;;;;;;;27.80;18.87;;;;;;;4.73;68.33;100512.13;1738137;82;21206;-43
2020/12/17 11:18:06;;;;;;;30.15;19.30;;;;;;;4.67;68.07;100515.18;1768369;81;21056;-43
2020/12/17 11:20:39;;;;;;;28.38;19.35;;;;;;;4.58;68.30;100514.24;1738133;82;21633;-43
2020/12/17 11:23:11;;;;;;;29.57;19.48;;;;;;;4.50;68.46;100507.66;1736376;82;21163;-43
2020/12/17 11:25:39;;;;;;;30.43;19.75;;;;;;;4.44;68.64;100510.16;1738190;82;21170;-43
2020/12/17 11:28:08;;;;;;;27.55;19.15;;;;;;;4.43;68.70;100507.75;1768533;81;23512;-43
2020/12/17 11:30:37;;;;;;;30.27;19.85;;;;;;;4.44;68.92;100510.16;1737847;82;21619;-43
2020/12/17 11:33:06;;;;;;;26.25;17.92;;;;;;;4.53;69.00;100513.77;1737975;82;21111;-43
2020/12/17 11:35:34;;;;;;;25.32;18.55;;;;;;;4.63;68.99;100512.83;1768629;81;21618;-43
2020/12/17 11:38:03;;;;;;;28.05;18.62;;;;;;;4.64;68.80;100512.55;1729102;82;21088;-43